Time,TemperatureF,DewpointF,PressureIn,WindDirection,WindDirectionDegrees,WindSpeedMPH,WindSpeedGustMPH,Humidity,HourlyPrecipIn,Conditions,Clouds,dailyrainin,SoftwareType,DateUTC
2013-08-06 00:04:00,64.3,63.7,29.93,WNW,291,0.0,0.0,98,0.00,,,0.00,Wunderground v.1.15,2013-08-06 04:04:00,
2013-08-06 00:10:00,64.2,63.6,29.93,WNW,291,0.0,0.0,98,0.00,,,0.00,Wunderground v.1.15,2013-08-06 04:10:00,
2013-08-06 00:15:00,64.2,63.6,29.94,WNW,291,0.0,0.0,98,0.00,,,0.00,Wunderground v.1.15,2013-08-06 04:15:00,
2013-08-06 00:19:00,64.2,63.6,29.94,WNW,290,0.0,0.0,98,0.00,,,0.00,Wunderground v.1.15,2013-08-06 04:19:00,
2013-08-06 00:25:00,64.3,63.7,29.94,WNW,291,0.0,0.0,98,0.00,,,0.00,Wunderground v.1.15,2013-08-06 04:25:00,
2013-08-06 00:30:00,64.3,64.0,29.93,WNW,290,0.0,0.0,99,0.00,,,0.00,Wunderground v.1.15,2013-08-06 04:30:00,
2013-08-06 00:40:00,64.3,64.0,29.94,WNW,290,0.0,0.0,99,0.00,,,0.00,Wunderground v.1.15,2013-08-06 04:40:00,
2013-08-06 00:50:00,64.3,64.0,29.94,WNW,291,0.0,0.0,99,0.00,,,0.00,Wunderground v.1.15,2013-08-06 04:50:00,
2013-08-06 01:00:00,64.3,64.0,29.94,WNW,291,0.0,0.0,99,0.00,,,0.00,Wunderground v.1.15,2013-08-06 05:00:00,
2013-08-06 01:10:00,64.3,64.0,29.93,WNW,291,0.0,0.0,99,0.00,,,0.00,Wunderground v.1.15,2013-08-06 05:10:00,
2013-08-06 01:19:00,64.2,63.9,29.93,WNW,290,0.0,0.0,99,0.00,,,0.00,Wunderground v.1.15,2013-08-06 05:19:00,
2013-08-06 01:25:00,64.1,63.8,29.93,WNW,291,0.0,0.0,99,0.00,,,0.00,Wunderground v.1.15,2013-08-06 05:25:00,
2013-08-06 01:35:00,63.8,63.5,29.93,WNW,291,0.0,0.0,99,0.00,,,0.00,Wunderground v.1.15,2013-08-06 05:35:00,
2013-08-06 01:40:00,63.7,63.4,29.93,WNW,290,0.0,0.0,99,0.00,,,0.00,Wunderground v.1.15,2013-08-06 05:40:00,
2013-08-06 01:50:00,63.5,63.2,29.92,WNW,291,0.0,0.0,99,0.00,,,0.00,Wunderground v.1.15,2013-08-06 05:50:00,
2013-08-06 02:00:00,63.2,62.9,29.92,WNW,290,0.0,0.0,99,0.00,,,0.00,Wunderground v.1.15,2013-08-06 06:00:00,
2013-08-06 02:10:00,63.0,62.7,29.92,WNW,290,0.0,0.0,99,0.00,,,0.00,Wunderground v.1.15,2013-08-06 06:10:00,
2013-08-06 02:20:00,63.0,62.7,29.92,WNW,290,0.0,0.0,99,0.00,,,0.00,Wunderground v.1.15,2013-08-06 06:20:00,
2013-08-06 02:25:00,63.0,63.0,29.92,WNW,290,0.0,0.0,100,0.00,,,0.00,Wunderground v.1.15,2013-08-06 06:25:00,
2013-08-06 02:35:00,63.1,63.1,29.92,WNW,290,0.0,0.0,100,0.00,,,0.00,Wunderground v.1.15,2013-08-06 06:35:00,
2013-08-06 02:45:00,63.3,63.3,29.91,WNW,290,0.0,0.0,100,0.00,,,0.00,Wunderground v.1.15,2013-08-06 06:45:00,
2013-08-06 02:50:00,63.4,63.4,29.92,WNW,290,0.0,0.0,100,0.00,,,0.00,Wunderground v.1.15,2013-08-06 06:50:00,
2013-08-06 03:00:00,63.8,63.8,29.92,WNW,291,0.0,0.0,100,0.00,,,0.00,Wunderground v.1.15,2013-08-06 07:00:00,
2013-08-06 03:10:00,63.9,63.9,29.92,WNW,290,0.0,0.0,100,0.00,,,0.00,Wunderground v.1.15,2013-08-06 07:10:00,
2013-08-06 03:20:00,64.0,64.0,29.92,WNW,291,0.0,0.0,100,0.00,,,0.00,Wunderground v.1.15,2013-08-06 07:20:00,
2013-08-06 03:30:00,64.1,64.1,29.92,WNW,291,0.0,0.0,100,0.00,,,0.00,Wunderground v.1.15,2013-08-06 07:30:00,
2013-08-06 03:40:00,64.1,64.1,29.92,WNW,290,0.0,0.0,100,0.00,,,0.00,Wunderground v.1.15,2013-08-06 07:40:00,
2013-08-06 03:45:00,64.2,64.2,29.93,WNW,291,0.0,0.0,100,0.00,,,0.00,Wunderground v.1.15,2013-08-06 07:45:00,
2013-08-06 03:55:00,64.4,64.4,29.92,WNW,291,0.0,0.0,100,0.00,,,0.00,Wunderground v.1.15,2013-08-06 07:55:00,
2013-08-06 04:05:00,64.3,64.3,29.92,WNW,291,0.0,0.0,100,0.00,,,0.00,Wunderground v.1.15,2013-08-06 08:05:00,
2013-08-06 04:14:00,64.3,64.3,29.92,WNW,291,0.0,0.0,100,0.00,,,0.00,Wunderground v.1.15,2013-08-06 08:14:00,
2013-08-06 04:20:00,64.3,64.3,29.92,WNW,291,0.0,0.0,100,0.00,,,0.00,Wunderground v.1.15,2013-08-06 08:20:00,
2013-08-06 04:30:00,64.3,64.3,29.91,WNW,291,0.0,0.0,100,0.00,,,0.00,Wunderground v.1.15,2013-08-06 08:30:00,
2013-08-06 04:35:00,64.3,64.3,29.91,WNW,291,0.0,0.0,100,0.00,,,0.00,Wunderground v.1.15,2013-08-06 08:35:00,
2013-08-06 04:45:00,64.3,64.3,29.90,WNW,290,0.0,0.0,100,0.00,,,0.00,Wunderground v.1.15,2013-08-06 08:45:00,
2013-08-06 04:50:00,64.3,64.3,29.90,WNW,290,0.0,0.0,100,0.00,,,0.00,Wunderground v.1.15,2013-08-06 08:50:00,
2013-08-06 04:59:00,64.0,64.0,29.90,WNW,291,0.0,0.0,100,0.00,,,0.00,Wunderground v.1.15,2013-08-06 08:59:00,
2013-08-06 05:05:00,63.7,63.7,29.90,WNW,291,0.0,0.0,100,0.00,,,0.00,Wunderground v.1.15,2013-08-06 09:05:00,
2013-08-06 05:15:00,63.3,63.3,29.90,WNW,290,0.0,0.0,100,0.00,,,0.00,Wunderground v.1.15,2013-08-06 09:15:00,
2013-08-06 05:24:00,63.2,63.2,29.90,WNW,291,0.0,0.0,100,0.00,,,0.00,Wunderground v.1.15,2013-08-06 09:24:00,
2013-08-06 05:30:00,63.2,63.2,29.90,WNW,291,0.0,0.0,100,0.00,,,0.00,Wunderground v.1.15,2013-08-06 09:30:00,
2013-08-06 05:40:00,63.3,63.3,29.90,WNW,290,0.0,0.0,100,0.00,,,0.00,Wunderground v.1.15,2013-08-06 09:40:00,
2013-08-06 05:50:00,63.4,63.4,29.90,WNW,290,0.0,0.0,100,0.00,,,0.00,Wunderground v.1.15,2013-08-06 09:50:00,
2013-08-06 06:00:00,63.5,63.5,29.90,WNW,290,0.0,0.0,100,0.00,,,0.00,Wunderground v.1.15,2013-08-06 10:00:00,
2013-08-06 06:09:00,63.6,63.6,29.91,WNW,290,0.0,0.0,100,0.00,,,0.00,Wunderground v.1.15,2013-08-06 10:09:00,
2013-08-06 06:14:00,63.7,63.7,29.91,WNW,291,0.0,0.0,100,0.00,,,0.00,Wunderground v.1.15,2013-08-06 10:14:00,
2013-08-06 06:20:00,63.8,63.8,29.90,WNW,291,0.0,0.0,100,0.00,,,0.00,Wunderground v.1.15,2013-08-06 10:20:00,
2013-08-06 06:30:00,63.9,63.9,29.90,WNW,291,0.0,0.0,100,0.00,,,0.00,Wunderground v.1.15,2013-08-06 10:30:00,
2013-08-06 06:40:00,64.1,64.1,29.91,WNW,290,0.0,0.0,100,0.00,,,0.00,Wunderground v.1.15,2013-08-06 10:40:00,
2013-08-06 06:50:00,64.3,64.3,29.91,WNW,291,0.0,0.0,100,0.00,,,0.00,Wunderground v.1.15,2013-08-06 10:50:00,
2013-08-06 06:59:00,64.4,64.4,29.92,WNW,291,0.0,0.0,100,0.00,,,0.00,Wunderground v.1.15,2013-08-06 10:59:00,
2013-08-06 07:05:00,64.5,64.5,29.92,WNW,291,0.0,0.0,100,0.00,,,0.00,Wunderground v.1.15,2013-08-06 11:05:00,
2013-08-06 07:15:00,64.5,64.5,29.92,WNW,290,0.0,0.0,100,0.00,,,0.00,Wunderground v.1.15,2013-08-06 11:15:00,
2013-08-06 07:24:00,64.5,64.5,29.93,WNW,291,0.0,0.0,100,0.00,,,0.00,Wunderground v.1.15,2013-08-06 11:24:00,
2013-08-06 07:30:00,64.7,64.7,29.93,WNW,290,0.0,0.0,100,0.00,,,0.00,Wunderground v.1.15,2013-08-06 11:30:00,
2013-08-06 07:40:00,64.5,64.5,29.93,WNW,291,0.0,0.0,100,0.00,,,0.00,Wunderground v.1.15,2013-08-06 11:40:00,
2013-08-06 07:45:00,64.5,64.5,29.93,WNW,291,0.0,0.0,100,0.00,,,0.00,Wunderground v.1.15,2013-08-06 11:45:00,
2013-08-06 07:50:00,64.4,64.4,29.94,WNW,290,0.0,0.0,100,0.00,,,0.00,Wunderground v.1.15,2013-08-06 11:50:00,
2013-08-06 07:55:00,64.4,64.4,29.93,WNW,290,0.0,0.0,100,0.00,,,0.00,Wunderground v.1.15,2013-08-06 11:55:00,
2013-08-06 08:00:00,64.4,64.4,29.94,WNW,291,0.0,0.0,100,0.00,,,0.00,Wunderground v.1.15,2013-08-06 12:00:00,
2013-08-06 08:10:00,64.5,64.5,29.94,WNW,291,0.0,0.0,100,0.00,,,0.00,Wunderground v.1.15,2013-08-06 12:10:00,
2013-08-06 08:15:00,64.6,64.6,29.93,WNW,290,0.0,0.0,100,0.00,,,0.00,Wunderground v.1.15,2013-08-06 12:15:00,
2013-08-06 08:20:00,64.9,64.9,29.93,WNW,290,0.0,0.0,100,0.00,,,0.00,Wunderground v.1.15,2013-08-06 12:20:00,
2013-08-06 08:29:00,65.4,65.4,29.93,WNW,290,0.0,0.0,100,0.00,,,0.00,Wunderground v.1.15,2013-08-06 12:29:00,
2013-08-06 08:35:00,65.6,65.6,29.93,WNW,292,0.0,0.0,100,0.00,,,0.00,Wunderground v.1.15,2013-08-06 12:35:00,
2013-08-06 08:40:00,66.1,66.1,29.93,WNW,293,0.0,0.0,100,0.00,,,0.00,Wunderground v.1.15,2013-08-06 12:40:00,
2013-08-06 08:50:00,66.5,66.5,29.94,WNW,292,0.0,0.0,100,0.00,,,0.00,Wunderground v.1.15,2013-08-06 12:50:00,
2013-08-06 08:59:00,67.0,67.0,29.94,WNW,293,0.0,0.0,100,0.00,,,0.00,Wunderground v.1.15,2013-08-06 12:59:00,
2013-08-06 09:05:00,67.6,67.6,29.94,WNW,293,0.0,0.0,100,0.00,,,0.00,Wunderground v.1.15,2013-08-06 13:05:00,
2013-08-06 09:15:00,68.8,67.9,29.94,NW,319,0.0,0.0,97,0.00,,,0.00,Wunderground v.1.15,2013-08-06 13:15:00,
2013-08-06 09:25:00,69.4,67.3,29.94,NE,43,0.0,0.0,93,0.00,,,0.00,Wunderground v.1.15,2013-08-06 13:25:00,
2013-08-06 09:35:00,70.0,67.6,29.94,NE,44,0.0,0.0,92,0.00,,,0.00,Wunderground v.1.15,2013-08-06 13:35:00,
2013-08-06 09:54:00,69.9,67.2,29.94,West,266,0.0,0.0,91,0.00,,,0.00,Wunderground v.1.15,2013-08-06 13:54:00,
2013-08-06 10:00:00,70.0,67.3,29.94,West,267,0.0,0.0,91,0.00,,,0.00,Wunderground v.1.15,2013-08-06 14:00:00,
2013-08-06 10:10:00,70.3,66.6,29.93,NE,46,0.0,1.0,88,0.00,,,0.00,Wunderground v.1.15,2013-08-06 14:10:00,
2013-08-06 10:19:00,71.6,66.5,29.93,WSW,242,0.0,0.0,84,0.00,,,0.00,Wunderground v.1.15,2013-08-06 14:19:00,
2013-08-06 10:25:00,71.9,67.5,29.92,SSW,210,1.0,1.0,86,0.00,,,0.00,Wunderground v.1.15,2013-08-06 14:25:00,
2013-08-06 10:34:00,72.5,66.3,29.92,West,277,1.0,1.0,81,0.00,,,0.00,Wunderground v.1.15,2013-08-06 14:34:00,
2013-08-06 10:40:00,72.7,66.2,29.92,SSW,200,1.0,1.0,80,0.00,,,0.00,Wunderground v.1.15,2013-08-06 14:40:00,
2013-08-06 10:50:00,73.3,67.5,29.92,SSW,195,0.0,0.0,82,0.00,,,0.00,Wunderground v.1.15,2013-08-06 14:50:00,
2013-08-06 10:59:00,73.9,66.2,29.92,NW,317,0.0,1.0,77,0.00,,,0.00,Wunderground v.1.15,2013-08-06 14:59:00,
2013-08-06 11:05:00,74.0,66.7,29.92,ESE,107,1.0,1.0,78,0.00,,,0.00,Wunderground v.1.15,2013-08-06 15:05:00,
2013-08-06 11:15:00,75.4,68.4,29.92,SW,214,1.0,1.0,79,0.00,,,0.00,Wunderground v.1.15,2013-08-06 15:15:00,
2013-08-06 11:20:00,75.9,67.8,29.92,WSW,247,1.0,1.0,76,0.00,,,0.00,Wunderground v.1.15,2013-08-06 15:20:00,
2013-08-06 11:30:00,76.8,69.0,29.92,SE,138,1.0,1.0,77,0.00,,,0.00,Wunderground v.1.15,2013-08-06 15:30:00,
2013-08-06 11:40:00,78.8,69.8,29.92,South,170,1.0,3.0,74,0.00,,,0.00,Wunderground v.1.15,2013-08-06 15:40:00,
2013-08-06 11:50:00,80.3,70.4,29.92,SSW,211,1.0,2.0,72,0.00,,,0.00,Wunderground v.1.15,2013-08-06 15:50:00,
2013-08-06 12:00:00,80.8,70.5,29.92,ESE,112,1.0,1.0,71,0.00,,,0.00,Wunderground v.1.15,2013-08-06 16:00:00,
2013-08-06 12:10:00,81.2,68.8,29.92,East,94,1.0,4.0,66,0.00,,,0.00,Wunderground v.1.15,2013-08-06 16:10:00,
2013-08-06 12:15:00,80.1,68.6,29.92,ENE,78,2.0,4.0,68,0.00,,,0.00,Wunderground v.1.15,2013-08-06 16:15:00,
2013-08-06 12:25:00,80.3,69.6,29.92,WSW,257,1.0,1.0,70,0.00,,,0.00,Wunderground v.1.15,2013-08-06 16:25:00,
2013-08-06 12:35:00,80.6,69.9,29.92,SSE,160,1.0,3.0,70,0.00,,,0.00,Wunderground v.1.15,2013-08-06 16:35:00,
2013-08-06 12:45:00,81.2,70.5,29.91,South,176,1.0,4.0,70,0.00,,,0.00,Wunderground v.1.15,2013-08-06 16:45:00,
2013-08-06 12:55:00,81.7,70.1,29.91,SE,127,2.0,2.0,68,0.00,,,0.00,Wunderground v.1.15,2013-08-06 16:55:00,
2013-08-06 13:05:00,81.1,69.1,29.91,WNW,285,1.0,1.0,67,0.00,,,0.00,Wunderground v.1.15,2013-08-06 17:05:00,
2013-08-06 13:15:00,80.0,68.5,29.91,ESE,121,1.0,2.0,68,0.00,,,0.00,Wunderground v.1.15,2013-08-06 17:15:00,
2013-08-06 13:25:00,79.8,69.6,29.91,SSW,208,0.0,1.0,71,0.00,,,0.00,Wunderground v.1.15,2013-08-06 17:25:00,
2013-08-06 13:34:00,80.2,69.9,29.90,WSW,238,0.0,1.0,71,0.00,,,0.00,Wunderground v.1.15,2013-08-06 17:34:00,
2013-08-06 13:40:00,80.3,70.4,29.90,WSW,238,0.0,0.0,72,0.00,,,0.00,Wunderground v.1.15,2013-08-06 17:40:00,
2013-08-06 13:50:00,80.5,69.4,29.90,ESE,107,0.0,0.0,69,0.00,,,0.00,Wunderground v.1.15,2013-08-06 17:50:00,
2013-08-06 13:55:00,81.0,71.5,29.90,West,259,0.0,1.0,73,0.00,,,0.00,Wunderground v.1.15,2013-08-06 17:55:00,
2013-08-06 14:00:00,81.4,70.7,29.89,SW,226,0.0,0.0,70,0.00,,,0.00,Wunderground v.1.15,2013-08-06 18:00:00,
2013-08-06 14:05:00,81.9,72.0,29.89,East,96,1.0,1.0,72,0.00,,,0.00,Wunderground v.1.15,2013-08-06 18:05:00,
2013-08-06 14:15:00,82.1,72.2,29.90,SW,232,0.0,2.0,72,0.00,,,0.00,Wunderground v.1.15,2013-08-06 18:15:00,
2013-08-06 14:24:00,82.8,71.6,29.90,SW,233,0.0,2.0,69,0.00,,,0.00,Wunderground v.1.15,2013-08-06 18:24:00,
2013-08-06 14:35:00,82.8,71.6,29.90,SSW,209,1.0,1.0,69,0.00,,,0.00,Wunderground v.1.15,2013-08-06 18:35:00,
2013-08-06 14:45:00,83.0,72.6,29.90,SSW,205,1.0,3.0,71,0.00,,,0.00,Wunderground v.1.15,2013-08-06 18:45:00,
2013-08-06 14:55:00,81.3,71.4,29.90,SW,221,1.0,1.0,72,0.00,,,0.00,Wunderground v.1.15,2013-08-06 18:55:00,
2013-08-06 15:04:00,81.0,70.7,29.90,SSW,210,0.0,0.0,71,0.00,,,0.00,Wunderground v.1.15,2013-08-06 19:04:00,
2013-08-06 15:10:00,81.3,71.8,29.90,SW,219,0.0,0.0,73,0.00,,,0.00,Wunderground v.1.15,2013-08-06 19:10:00,
2013-08-06 15:20:00,82.6,72.7,29.89,South,169,0.0,0.0,72,0.00,,,0.00,Wunderground v.1.15,2013-08-06 19:20:00,
2013-08-06 15:29:00,82.9,71.3,29.89,NNE,25,1.0,1.0,68,0.00,,,0.00,Wunderground v.1.15,2013-08-06 19:29:00,
2013-08-06 15:35:00,83.3,71.6,29.89,NE,34,1.0,1.0,68,0.00,,,0.00,Wunderground v.1.15,2013-08-06 19:35:00,
2013-08-06 15:45:00,83.2,71.1,29.89,SSW,200,0.0,1.0,67,0.00,,,0.00,Wunderground v.1.15,2013-08-06 19:45:00,
2013-08-06 15:55:00,82.9,72.1,29.89,WSW,255,0.0,0.0,70,0.00,,,0.00,Wunderground v.1.15,2013-08-06 19:55:00,
2013-08-06 16:04:00,83.4,71.7,29.89,NNE,18,0.0,0.0,68,0.00,,,0.00,Wunderground v.1.15,2013-08-06 20:04:00,
2013-08-06 16:10:00,83.8,73.4,29.89,South,183,0.0,0.0,71,0.00,,,0.00,Wunderground v.1.15,2013-08-06 20:10:00,
2013-08-06 16:20:00,84.2,73.3,29.89,South,184,0.0,0.0,70,0.00,,,0.00,Wunderground v.1.15,2013-08-06 20:20:00,
2013-08-06 16:30:00,84.0,72.3,29.88,WSW,255,1.0,1.0,68,0.00,,,0.00,Wunderground v.1.15,2013-08-06 20:30:00,
2013-08-06 16:35:00,84.3,72.6,29.88,SW,219,1.0,1.0,68,0.00,,,0.00,Wunderground v.1.15,2013-08-06 20:35:00,
2013-08-06 16:44:00,84.5,71.9,29.88,SE,137,1.0,1.0,66,0.00,,,0.00,Wunderground v.1.15,2013-08-06 20:44:00,
2013-08-06 16:50:00,84.7,73.0,29.88,SW,221,1.0,1.0,68,0.00,,,0.00,Wunderground v.1.15,2013-08-06 20:50:00,
2013-08-06 17:00:00,84.3,73.4,29.88,WSW,246,1.0,1.0,70,0.00,,,0.00,Wunderground v.1.15,2013-08-06 21:00:00,
2013-08-06 17:10:00,83.8,73.4,29.88,SW,221,0.0,0.0,71,0.00,,,0.00,Wunderground v.1.15,2013-08-06 21:10:00,
2013-08-06 17:20:00,84.0,74.0,29.88,SW,225,0.0,0.0,72,0.00,,,0.00,Wunderground v.1.15,2013-08-06 21:20:00,
2013-08-06 17:30:00,82.3,74.0,29.88,WSW,241,0.0,0.0,76,0.00,,,0.00,Wunderground v.1.15,2013-08-06 21:30:00,
2013-08-06 17:40:00,81.7,74.2,29.88,WSW,242,0.0,0.0,78,0.00,,,0.00,Wunderground v.1.15,2013-08-06 21:40:00,
2013-08-06 17:50:00,82.3,74.4,29.87,WSW,241,0.0,0.0,77,0.00,,,0.00,Wunderground v.1.15,2013-08-06 21:50:00,
2013-08-06 18:00:00,82.2,75.4,29.88,WSW,240,0.0,0.0,80,0.00,,,0.00,Wunderground v.1.15,2013-08-06 22:00:00,
2013-08-06 18:10:00,81.9,75.5,29.87,SW,233,0.0,1.0,81,0.00,,,0.00,Wunderground v.1.15,2013-08-06 22:10:00,
2013-08-06 18:20:00,81.1,73.6,29.87,NW,320,0.0,0.0,78,0.00,,,0.00,Wunderground v.1.15,2013-08-06 22:20:00,
2013-08-06 18:30:00,80.3,73.9,29.87,NW,309,0.0,0.0,81,0.00,,,0.00,Wunderground v.1.15,2013-08-06 22:30:00,
2013-08-06 18:39:00,79.2,73.6,29.87,NW,309,0.0,0.0,83,0.00,,,0.00,Wunderground v.1.15,2013-08-06 22:39:00,
2013-08-06 18:45:00,78.6,73.0,29.88,NW,309,0.0,0.0,83,0.00,,,0.00,Wunderground v.1.15,2013-08-06 22:45:00,
2013-08-06 18:55:00,77.9,73.0,29.87,NW,307,0.0,0.0,85,0.00,,,0.00,Wunderground v.1.15,2013-08-06 22:55:00,
2013-08-06 19:05:00,77.6,73.1,29.87,WNW,303,0.0,0.0,86,0.00,,,0.00,Wunderground v.1.15,2013-08-06 23:05:00,
2013-08-06 19:15:00,77.0,72.8,29.87,WNW,302,0.0,0.0,87,0.00,,,0.00,Wunderground v.1.15,2013-08-06 23:15:00,
2013-08-06 19:25:00,76.3,72.5,29.87,WNW,302,0.0,0.0,88,0.00,,,0.00,Wunderground v.1.15,2013-08-06 23:25:00,
2013-08-06 19:34:00,75.8,72.3,29.87,WNW,301,0.0,0.0,89,0.00,,,0.00,Wunderground v.1.15,2013-08-06 23:34:00,
2013-08-06 19:40:00,75.7,72.6,29.87,WNW,301,0.0,0.0,90,0.00,,,0.00,Wunderground v.1.15,2013-08-06 23:40:00,
2013-08-06 19:50:00,75.3,72.5,29.87,WNW,302,0.0,0.0,91,0.00,,,0.00,Wunderground v.1.15,2013-08-06 23:50:00,
2013-08-06 20:00:00,74.9,72.4,29.87,WNW,302,0.0,0.0,92,0.00,,,0.00,Wunderground v.1.15,2013-08-07 00:00:00,
2013-08-06 20:10:00,74.4,72.2,29.87,WNW,302,0.0,0.0,93,0.00,,,0.00,Wunderground v.1.15,2013-08-07 00:10:00,
2013-08-06 20:15:00,74.2,72.0,29.87,WNW,302,0.0,0.0,93,0.00,,,0.00,Wunderground v.1.15,2013-08-07 00:15:00,
2013-08-06 20:25:00,73.8,72.0,29.87,WNW,302,0.0,0.0,94,0.00,,,0.00,Wunderground v.1.15,2013-08-07 00:25:00,
2013-08-06 20:35:00,73.3,71.5,29.87,WNW,302,0.0,0.0,94,0.00,,,0.00,Wunderground v.1.15,2013-08-07 00:35:00,
2013-08-06 20:44:00,72.9,71.4,29.87,WNW,302,0.0,0.0,95,0.00,,,0.00,Wunderground v.1.15,2013-08-07 00:44:00,
2013-08-06 20:55:00,72.6,71.4,29.87,WNW,302,0.0,0.0,96,0.00,,,0.00,Wunderground v.1.15,2013-08-07 00:55:00,
2013-08-06 21:04:00,72.2,71.0,29.87,WNW,302,0.0,0.0,96,0.00,,,0.00,Wunderground v.1.15,2013-08-07 01:04:00,
2013-08-06 21:15:00,71.8,70.9,29.88,WNW,302,0.0,0.0,97,0.00,,,0.00,Wunderground v.1.15,2013-08-07 01:15:00,
2013-08-06 21:24:00,71.5,70.6,29.87,WNW,302,0.0,0.0,97,0.00,,,0.00,Wunderground v.1.15,2013-08-07 01:24:00,
2013-08-06 21:30:00,71.4,70.5,29.87,WNW,302,0.0,0.0,97,0.00,,,0.00,Wunderground v.1.15,2013-08-07 01:30:00,
2013-08-06 21:39:00,71.1,70.5,29.88,WNW,302,0.0,0.0,98,0.00,,,0.00,Wunderground v.1.15,2013-08-07 01:39:00,
2013-08-06 21:45:00,71.0,70.4,29.88,WNW,302,0.0,0.0,98,0.00,,,0.00,Wunderground v.1.15,2013-08-07 01:45:00,
2013-08-06 21:54:00,70.7,70.1,29.88,WNW,302,0.0,0.0,98,0.00,,,0.00,Wunderground v.1.15,2013-08-07 01:54:00,
2013-08-06 22:00:00,70.7,70.4,29.88,WNW,302,0.0,0.0,99,0.00,,,0.00,Wunderground v.1.15,2013-08-07 02:00:00,
2013-08-06 22:10:00,70.6,70.3,29.88,WNW,302,0.0,0.0,99,0.00,,,0.00,Wunderground v.1.15,2013-08-07 02:10:00,
2013-08-06 22:20:00,70.3,70.0,29.88,WNW,302,0.0,0.0,99,0.00,,,0.00,Wunderground v.1.15,2013-08-07 02:20:00,
2013-08-06 22:29:00,70.1,69.8,29.88,WNW,302,0.0,0.0,99,0.00,,,0.00,Wunderground v.1.15,2013-08-07 02:29:00,
2013-08-06 22:35:00,70.0,69.7,29.88,WNW,302,0.0,0.0,99,0.00,,,0.00,Wunderground v.1.15,2013-08-07 02:35:00,
2013-08-06 22:44:00,69.8,69.5,29.88,WNW,302,0.0,0.0,99,0.00,,,0.00,Wunderground v.1.15,2013-08-07 02:44:00,
2013-08-06 22:50:00,69.7,69.4,29.88,WNW,302,0.0,0.0,99,0.00,,,0.00,Wunderground v.1.15,2013-08-07 02:50:00,
2013-08-06 22:59:00,69.4,69.1,29.88,WNW,302,0.0,0.0,99,0.00,,,0.00,Wunderground v.1.15,2013-08-07 02:59:00,
2013-08-06 23:05:00,69.3,69.0,29.88,WNW,302,0.0,0.0,99,0.00,,,0.00,Wunderground v.1.15,2013-08-07 03:05:00,
2013-08-06 23:15:00,69.2,68.9,29.88,WNW,302,0.0,0.0,99,0.00,,,0.00,Wunderground v.1.15,2013-08-07 03:15:00,
2013-08-06 23:24:00,69.2,69.2,29.88,WNW,302,0.0,0.0,100,0.00,,,0.00,Wunderground v.1.15,2013-08-07 03:24:00,
2013-08-06 23:30:00,69.0,69.0,29.88,WNW,302,0.0,0.0,100,0.00,,,0.00,Wunderground v.1.15,2013-08-07 03:30:00,
2013-08-06 23:39:00,68.8,68.8,29.88,WNW,302,0.0,0.0,100,0.00,,,0.00,Wunderground v.1.15,2013-08-07 03:39:00,
2013-08-06 23:45:00,68.7,68.7,29.88,WNW,302,0.0,0.0,100,0.00,,,0.00,Wunderground v.1.15,2013-08-07 03:45:00,
2013-08-06 23:55:00,68.7,68.7,29.88,WNW,302,0.0,0.0,100,0.00,,,0.00,Wunderground v.1.15,2013-08-07 03:55:00,